Terminal Aerodrome Forecast
Issued by NWS North Platte, NE

Home | Current Version | Previous Version | Graphics & Text | Print | Product List | Glossary On
Versions: 1 2 3 4 5 6 7 8 9 10 11 12 13 14
000
FTUS43 KLBF 120300 AAA
TAFVTN
TAF AMD
KVTN 120330Z 1204/1224 36007KT P6SM -RA SCT015 BKN025 OVC035
     FM120600 36005KT P6SM SCT007 BKN012 OVC035
     FM121200 36005KT P6SM SCT030 BKN050
     FM121800 33005KT P6SM SCT060=

USA.gov is the U.S. government's official web portal to all federal, state and local government web resources and services.